createdAt,value
2019-02-12T00:02:20.813Z,2.54
2019-02-12T00:04:49.396Z,2.52
2019-02-12T00:07:18.024Z,2.61
2019-02-12T00:09:46.644Z,2.65
2019-02-12T00:12:15.277Z,2.68
2019-02-12T00:14:43.888Z,2.56
2019-02-12T00:17:12.516Z,2.51
2019-02-12T00:19:41.455Z,2.68
2019-02-12T00:22:10.104Z,2.78
2019-02-12T00:24:39.024Z,2.70
2019-02-12T00:27:07.667Z,2.71
2019-02-12T00:29:36.326Z,2.69
2019-02-12T00:32:04.958Z,2.69
2019-02-12T00:34:33.578Z,2.75
2019-02-12T00:37:02.551Z,2.69
2019-02-12T00:39:31.168Z,2.79
2019-02-12T00:41:59.796Z,2.71
2019-02-12T00:44:28.718Z,2.70
2019-02-12T00:46:57.335Z,2.77
2019-02-12T00:49:26.289Z,2.63
2019-02-12T00:51:55.175Z,2.59
2019-02-12T00:54:24.206Z,2.58
2019-02-12T00:56:52.693Z,2.55
2019-02-12T00:59:21.620Z,2.67
2019-02-12T01:01:50.621Z,2.63
2019-02-12T01:04:19.234Z,2.62
2019-02-12T01:06:47.889Z,2.66
2019-02-12T01:09:16.876Z,2.59
2019-02-12T01:11:45.517Z,2.62
2019-02-12T01:14:14.128Z,2.70
2019-02-12T01:16:42.763Z,2.63
2019-02-12T01:19:11.381Z,2.70
2019-02-12T01:21:40.013Z,2.65
2019-02-12T01:24:08.636Z,2.61
2019-02-12T01:26:37.273Z,2.65
2019-02-12T01:29:05.891Z,2.68
2019-02-12T01:31:34.859Z,2.68
2019-02-12T01:34:03.817Z,2.63
2019-02-12T01:36:32.807Z,2.60
2019-02-12T01:39:01.801Z,2.59
2019-02-12T01:41:30.792Z,2.76
2019-02-12T01:43:59.682Z,2.73
2019-02-12T01:46:28.314Z,2.77
2019-02-12T01:48:56.944Z,2.76
2019-02-12T01:51:25.583Z,2.71
2019-02-12T01:53:54.214Z,2.70
2019-02-12T01:56:22.858Z,2.76
2019-02-12T01:58:51.470Z,2.69
2019-02-12T02:01:20.147Z,2.66
2019-02-12T02:03:48.782Z,2.66
2019-02-12T02:06:17.390Z,2.73
2019-02-12T02:08:46.007Z,2.68
2019-02-12T02:11:14.638Z,2.75
2019-02-12T02:13:43.272Z,2.75
2019-02-12T02:16:11.941Z,2.71
2019-02-12T02:18:40.850Z,2.65
2019-02-12T02:21:09.491Z,2.71
2019-02-12T02:23:38.419Z,2.58
2019-02-12T02:26:07.042Z,2.73
2019-02-12T02:28:36.000Z,2.69
2019-02-12T02:31:04.642Z,2.68
2019-02-12T02:33:33.557Z,2.66
2019-02-12T02:36:02.188Z,2.52
2019-02-12T02:38:30.872Z,2.59
2019-02-12T02:40:59.430Z,2.57
2019-02-12T02:43:28.059Z,2.53
2019-02-12T02:45:56.673Z,2.55
2019-02-12T02:48:25.301Z,2.53
2019-02-12T02:50:53.906Z,2.57
2019-02-12T02:53:22.765Z,2.57
2019-02-12T02:55:51.399Z,2.63
2019-02-12T02:58:20.034Z,2.55
2019-02-12T03:00:48.655Z,2.65
2019-02-12T03:03:17.553Z,2.66
2019-02-12T03:05:46.480Z,2.54
2019-02-12T03:08:15.140Z,2.59
2019-02-12T03:10:43.740Z,2.51
2019-02-12T03:13:12.361Z,2.55
2019-02-12T03:15:40.980Z,2.55
2019-02-12T03:18:09.607Z,2.46
2019-02-12T03:20:38.230Z,2.40
2019-02-12T03:23:06.850Z,2.42
2019-02-12T03:25:35.506Z,2.45
2019-02-12T03:28:04.104Z,2.37
2019-02-12T03:30:32.726Z,2.35
2019-02-12T03:33:01.361Z,2.44
2019-02-12T03:35:29.972Z,2.45
2019-02-12T03:37:58.611Z,2.51
2019-02-12T03:40:27.208Z,2.42
2019-02-12T03:42:56.202Z,2.42
2019-02-12T03:45:24.832Z,2.44
2019-02-12T03:47:53.461Z,2.51
2019-02-12T03:50:22.079Z,2.43
2019-02-12T03:52:50.709Z,2.36
2019-02-12T03:55:19.328Z,2.42
2019-02-12T03:57:47.954Z,2.41
2019-02-12T04:00:16.859Z,2.37
2019-02-12T04:05:45.561Z,2.47
2019-02-12T04:08:14.188Z,2.47
2019-02-12T04:10:42.798Z,2.49
2019-02-12T04:13:11.424Z,2.54
2019-02-12T04:15:40.033Z,2.60
2019-02-12T04:18:08.676Z,2.56
2019-02-12T04:20:37.299Z,2.49
2019-02-12T04:23:06.265Z,2.47
2019-02-12T04:25:34.888Z,2.47
2019-02-12T04:28:03.498Z,2.40
2019-02-12T04:30:32.116Z,2.36
2019-02-12T04:33:00.747Z,2.32
2019-02-12T04:35:29.373Z,2.44
2019-02-12T04:37:58.027Z,2.36
2019-02-12T04:40:26.643Z,2.43
2019-02-12T04:42:55.530Z,2.46
2019-02-12T04:45:24.165Z,2.40
2019-02-12T04:47:52.790Z,2.43
2019-02-12T04:50:21.412Z,2.39
2019-02-12T04:52:50.048Z,2.29
2019-02-12T04:55:18.653Z,2.29
2019-02-12T04:57:47.645Z,2.24
2019-02-12T05:00:16.398Z,2.26
2019-02-12T05:02:44.915Z,2.26
2019-02-12T05:05:13.539Z,2.27
2019-02-12T05:07:42.204Z,2.29
2019-02-12T05:10:14.036Z,2.19
2019-02-12T05:12:42.652Z,2.29
2019-02-12T05:15:11.604Z,2.25
2019-02-12T05:17:40.195Z,2.34
2019-02-12T05:20:08.848Z,2.27
2019-02-12T05:22:43.599Z,2.18
2019-02-12T05:25:06.102Z,2.14
2019-02-12T05:27:35.022Z,2.15
2019-02-12T05:30:03.651Z,2.14
2019-02-12T05:32:32.288Z,2.14
2019-02-12T05:35:01.269Z,2.18
2019-02-12T05:37:29.898Z,2.28
2019-02-12T05:39:58.515Z,2.27
2019-02-12T05:42:27.139Z,2.21
2019-02-12T05:44:56.029Z,2.14
2019-02-12T05:47:24.999Z,2.17
2019-02-12T05:49:53.628Z,2.19
2019-02-12T05:52:22.240Z,2.16
2019-02-12T05:54:50.866Z,2.17
2019-02-12T05:57:19.477Z,2.20
2019-02-12T05:59:48.086Z,2.29
2019-02-12T06:02:16.705Z,2.33
2019-02-12T06:04:45.336Z,2.22
2019-02-12T06:07:13.945Z,2.21
2019-02-12T06:09:42.575Z,2.16
2019-02-12T06:12:11.181Z,2.22
2019-02-12T06:14:39.791Z,2.22
2019-02-12T06:17:08.395Z,2.26
2019-02-12T06:19:37.019Z,2.22
2019-02-12T06:22:05.640Z,2.22
2019-02-12T06:24:34.274Z,2.19
2019-02-12T06:27:02.885Z,2.26
2019-02-12T06:29:31.514Z,2.25
2019-02-12T06:32:00.497Z,2.26
2019-02-12T06:34:29.145Z,2.33
2019-02-12T06:36:57.743Z,2.28
2019-02-12T06:39:26.662Z,2.18
2019-02-12T06:41:55.261Z,2.23
2019-02-12T06:44:23.886Z,2.12
2019-02-12T06:46:52.497Z,2.09
2019-02-12T06:49:21.143Z,2.31
2019-02-12T06:51:49.762Z,2.17
2019-02-12T06:54:18.376Z,2.14
2019-02-12T06:56:46.981Z,2.16
2019-02-12T06:59:15.602Z,2.17
2019-02-12T07:01:44.493Z,2.17
2019-02-12T07:04:13.121Z,2.10
2019-02-12T07:09:31.960Z,2.05
2019-02-12T07:14:51.081Z,2.09
2019-02-12T07:23:41.253Z,2.22
2019-02-12T07:26:48.030Z,2.25
2019-02-12T07:29:32.088Z,2.27
2019-02-12T07:32:31.994Z,2.26
2019-02-12T07:35:03.363Z,2.23
2019-02-12T07:37:37.755Z,2.31
2019-02-12T07:43:15.801Z,2.33
2019-02-12T07:51:28.433Z,2.43
2019-02-12T07:57:31.113Z,2.44
2019-02-12T07:59:59.762Z,2.42
2019-02-12T08:02:43.769Z,2.41
2019-02-12T08:05:18.383Z,2.48
2019-02-12T08:08:12.237Z,2.57
2019-02-12T08:13:30.967Z,2.36
2019-02-12T08:16:18.387Z,2.34
2019-02-12T08:18:56.197Z,2.21
2019-02-12T08:21:33.749Z,2.25
2019-02-12T08:32:53.312Z,2.41
2019-02-12T08:38:30.350Z,2.46
2019-02-12T08:41:17.696Z,2.49
2019-02-12T08:47:20.525Z,2.73
2019-02-12T08:50:13.910Z,2.77
2019-02-12T08:53:20.257Z,2.76
2019-02-12T09:01:48.704Z,3.05
2019-02-12T09:04:32.688Z,3.14
2019-02-12T09:07:07.292Z,3.22
2019-02-12T09:09:57.689Z,3.37
2019-02-12T09:12:26.795Z,3.27
2019-02-12T09:15:16.736Z,3.33
2019-02-12T09:17:51.638Z,3.32
2019-02-12T09:20:26.797Z,3.28
2019-02-12T09:23:04.692Z,3.29
2019-02-12T09:28:15.080Z,3.38
2019-02-12T09:34:05.107Z,3.40
2019-02-12T09:36:45.869Z,3.36
2019-02-12T09:39:35.980Z,3.38
2019-02-12T09:50:39.785Z,3.44
2019-02-12T09:53:33.293Z,3.46
2019-02-12T09:56:10.929Z,3.50
2019-02-12T09:58:51.707Z,3.43
2019-02-12T10:04:13.674Z,3.50
2019-02-12T10:07:00.524Z,3.44
2019-02-12T10:12:10.502Z,3.46
2019-02-12T10:14:54.229Z,3.48
2019-02-12T10:17:25.602Z,3.48
2019-02-12T10:22:56.891Z,3.37
2019-02-12T10:25:25.516Z,3.37
2019-02-12T10:33:39.654Z,3.47
2019-02-12T10:36:08.268Z,3.50
2019-02-12T10:38:36.902Z,3.58
2019-02-12T10:41:05.523Z,3.57
2019-02-12T10:43:34.139Z,3.71
2019-02-12T10:46:02.753Z,3.78
2019-02-12T10:48:31.389Z,3.92
2019-02-12T10:51:00.005Z,4.06
2019-02-12T10:53:29.644Z,4.08
2019-02-12T10:55:57.238Z,4.07
2019-02-12T10:58:25.892Z,3.91
2019-02-12T11:00:54.488Z,3.86
2019-02-12T11:03:23.430Z,3.70
2019-02-12T11:05:52.034Z,3.67
2019-02-12T11:08:20.652Z,3.67
2019-02-12T11:10:49.268Z,3.63
2019-02-12T11:13:17.905Z,3.64
2019-02-12T11:15:46.529Z,3.73
2019-02-12T11:18:15.148Z,3.85
2019-02-12T11:20:43.770Z,3.67
2019-02-12T11:23:12.408Z,3.69
2019-02-12T11:25:41.381Z,3.68
2019-02-12T11:28:10.048Z,3.77
2019-02-12T11:30:38.681Z,3.86
2019-02-12T11:33:07.347Z,3.92
2019-02-12T11:35:36.959Z,3.99
2019-02-12T11:38:04.615Z,4.09
2019-02-12T11:40:33.240Z,4.17
2019-02-12T11:43:01.872Z,4.15
2019-02-12T11:45:30.480Z,4.17
2019-02-12T11:47:59.100Z,4.13
2019-02-12T11:50:27.714Z,4.25
2019-02-12T11:52:56.323Z,4.30
2019-02-12T11:55:24.954Z,4.19
2019-02-12T11:57:53.572Z,4.23
2019-02-12T12:00:22.193Z,4.09
2019-02-12T12:02:51.136Z,4.15
2019-02-12T12:05:19.754Z,4.00
2019-02-12T12:07:48.357Z,3.89
2019-02-12T12:10:16.976Z,3.96
2019-02-12T12:12:45.971Z,4.03
2019-02-12T12:15:14.963Z,4.06
2019-02-12T12:17:43.593Z,4.08
2019-02-12T12:20:15.173Z,4.14
2019-02-12T12:22:43.834Z,4.15
2019-02-12T12:25:12.441Z,4.25
2019-02-12T12:27:41.084Z,4.33
2019-02-12T12:30:10.039Z,4.45
2019-02-12T12:32:38.701Z,4.43
2019-02-12T12:35:07.332Z,4.53
2019-02-12T12:37:35.939Z,4.55
2019-02-12T12:40:04.568Z,4.59
2019-02-12T12:42:33.215Z,4.65
2019-02-12T12:45:01.830Z,4.65
2019-02-12T12:47:30.465Z,4.73
2019-02-12T12:49:59.273Z,4.77
2019-02-12T12:52:27.707Z,4.70
2019-02-12T12:54:59.883Z,4.74
2019-02-12T12:57:24.916Z,4.67
2019-02-12T12:59:53.594Z,4.67
2019-02-12T13:02:22.157Z,4.68
2019-02-12T13:04:50.788Z,4.67
2019-02-12T13:07:19.396Z,4.79
2019-02-12T13:09:48.033Z,4.78
2019-02-12T13:12:16.671Z,4.87
2019-02-12T13:14:45.305Z,4.80
2019-02-12T13:17:13.936Z,4.79
2019-02-12T13:19:42.569Z,4.76
2019-02-12T13:22:11.481Z,4.75
2019-02-12T13:24:41.749Z,4.77
2019-02-12T13:27:09.397Z,4.77
2019-02-12T13:29:38.023Z,4.85
2019-02-12T13:32:06.660Z,4.88
2019-02-12T13:34:35.296Z,4.79
2019-02-12T13:37:04.189Z,4.83
2019-02-12T13:39:33.074Z,4.76
2019-02-12T13:42:01.976Z,4.73
2019-02-12T13:44:30.958Z,4.78
2019-02-12T13:46:59.960Z,4.72
2019-02-12T13:49:28.582Z,4.75
2019-02-12T13:51:57.182Z,4.66
2019-02-12T13:54:25.797Z,4.59
2019-02-12T13:56:54.413Z,4.54
2019-02-12T13:59:23.048Z,4.55
2019-02-12T14:01:51.669Z,4.50
2019-02-12T14:04:20.307Z,4.53
2019-02-12T14:06:48.914Z,4.51
2019-02-12T14:09:17.549Z,4.67
2019-02-12T14:11:46.488Z,4.56
2019-02-12T14:14:15.123Z,4.60
2019-02-12T14:16:43.722Z,4.60
2019-02-12T14:19:12.641Z,4.58
2019-02-12T14:21:41.273Z,4.66
2019-02-12T14:24:09.919Z,4.65
2019-02-12T14:26:38.525Z,4.81
2019-02-12T14:29:07.223Z,4.71
2019-02-12T14:31:35.773Z,4.61
2019-02-12T14:34:04.403Z,4.74
2019-02-12T14:36:33.022Z,4.66
2019-02-12T14:39:02.015Z,4.50
2019-02-12T14:41:30.613Z,4.51
2019-02-12T14:43:59.246Z,4.54
2019-02-12T14:46:27.865Z,4.42
2019-02-12T14:48:56.490Z,4.48
2019-02-12T14:51:25.101Z,4.47
2019-02-12T14:53:53.735Z,4.53
2019-02-12T14:56:22.692Z,4.54
2019-02-12T14:58:51.347Z,4.47
2019-02-12T15:01:19.967Z,4.59
2019-02-12T15:03:48.597Z,4.48
2019-02-12T15:06:17.536Z,4.47
2019-02-12T15:08:46.185Z,4.49
2019-02-12T15:11:14.805Z,4.47
2019-02-12T15:13:43.796Z,4.50
2019-02-12T15:16:12.403Z,4.52
2019-02-12T15:18:41.026Z,4.57
2019-02-12T15:21:09.652Z,4.47
2019-02-12T15:23:38.273Z,4.62
2019-02-12T15:26:06.903Z,4.55
2019-02-12T15:28:35.512Z,4.52
2019-02-12T15:31:04.133Z,4.52
2019-02-12T15:33:32.743Z,4.46
2019-02-12T15:36:01.732Z,4.40
2019-02-12T15:38:30.341Z,4.43
2019-02-12T15:40:58.969Z,4.35
2019-02-12T15:43:27.606Z,4.38
2019-02-12T15:45:56.237Z,4.27
2019-02-12T15:48:25.163Z,4.43
2019-02-12T15:50:53.786Z,4.38
2019-02-12T15:53:22.375Z,4.29
2019-02-12T15:55:51.638Z,4.26
2019-02-12T15:58:19.899Z,4.56
2019-02-12T16:00:48.538Z,4.47
2019-02-12T16:03:18.376Z,4.36
2019-02-12T16:05:45.772Z,4.38
2019-02-12T16:08:14.406Z,4.36
2019-02-12T16:10:43.319Z,4.21
2019-02-12T16:13:13.569Z,4.20
2019-02-12T16:15:41.518Z,4.13
2019-02-12T16:18:09.514Z,4.18
2019-02-12T16:20:38.121Z,4.23
2019-02-12T16:23:06.737Z,4.09
2019-02-12T16:25:35.366Z,4.06
2019-02-12T16:28:04.313Z,4.07
2019-02-12T16:30:32.935Z,4.09
2019-02-12T16:33:01.877Z,4.00
2019-02-12T16:35:30.523Z,4.02
2019-02-12T16:37:59.151Z,3.98
2019-02-12T16:40:27.789Z,3.97
2019-02-12T16:42:56.424Z,4.08
2019-02-12T16:45:37.002Z,4.05
2019-02-12T16:48:05.615Z,4.02
2019-02-12T16:50:34.346Z,3.98
2019-02-12T16:53:02.968Z,3.97
2019-02-12T16:55:31.588Z,3.97
2019-02-12T16:58:00.215Z,3.93
2019-02-12T17:00:28.849Z,3.92
2019-02-12T17:02:57.462Z,3.85
2019-02-12T17:05:26.078Z,3.88
2019-02-12T17:07:54.692Z,3.80
2019-02-12T17:10:23.601Z,3.73
2019-02-12T17:12:52.215Z,3.85
2019-02-12T17:15:20.838Z,3.81
2019-02-12T17:17:49.533Z,3.78
2019-02-12T17:20:18.170Z,3.90
2019-02-12T17:22:47.138Z,3.80
2019-02-12T17:25:15.772Z,3.89
2019-02-12T17:27:44.381Z,3.88
2019-02-12T17:32:54.335Z,3.88
2019-02-12T17:35:22.955Z,3.97
2019-02-12T17:37:51.561Z,3.79
2019-02-12T17:40:20.174Z,3.77
2019-02-12T17:42:48.794Z,3.76
2019-02-12T17:45:17.493Z,3.82
2019-02-12T17:47:46.128Z,3.85
2019-02-12T17:50:14.762Z,3.80
2019-02-12T17:52:43.388Z,3.86
2019-02-12T17:55:12.007Z,3.88
2019-02-12T17:57:40.616Z,3.85
2019-02-12T18:00:15.244Z,3.86
2019-02-12T18:02:43.872Z,3.78
2019-02-12T18:05:12.506Z,3.76
2019-02-12T18:07:41.107Z,3.74
2019-02-12T18:10:09.742Z,3.72
2019-02-12T18:12:38.343Z,3.74
2019-02-12T18:15:06.987Z,3.66
2019-02-12T18:17:35.591Z,3.85
2019-02-12T18:20:04.245Z,3.87
2019-02-12T18:22:32.875Z,3.93
2019-02-12T18:25:01.836Z,3.91
2019-02-12T18:27:30.509Z,3.93
2019-02-12T18:29:59.419Z,3.86
2019-02-12T18:32:28.068Z,3.87
2019-02-12T18:34:56.996Z,3.81
2019-02-12T18:37:26.014Z,3.89
2019-02-12T18:39:54.647Z,3.73
2019-02-12T18:42:23.548Z,3.68
2019-02-12T18:44:52.163Z,3.75
2019-02-12T18:47:20.789Z,3.75
2019-02-12T18:49:49.401Z,3.76
2019-02-12T18:52:18.027Z,3.78
2019-02-12T18:54:46.658Z,3.68
2019-02-12T18:57:15.271Z,3.62
2019-02-12T18:59:43.884Z,3.53
2019-02-12T19:02:12.500Z,3.55
2019-02-12T19:04:41.416Z,3.54
2019-02-12T19:07:10.041Z,3.51
2019-02-12T19:09:38.677Z,3.45
2019-02-12T19:12:07.313Z,3.44
2019-02-12T19:14:35.934Z,3.32
2019-02-12T19:17:04.581Z,3.35
2019-02-12T19:19:33.201Z,3.44
2019-02-12T19:22:02.191Z,3.32
2019-02-12T19:24:30.805Z,3.27
2019-02-12T19:26:59.767Z,3.24
2019-02-12T19:29:28.380Z,3.22
2019-02-12T19:31:59.291Z,3.40
2019-02-12T19:34:25.644Z,3.32
2019-02-12T19:36:54.604Z,3.36
2019-02-12T19:39:23.480Z,3.33
2019-02-12T19:41:52.120Z,3.38
2019-02-12T19:44:20.743Z,3.40
2019-02-12T19:46:49.352Z,3.41
2019-02-12T19:49:17.975Z,3.38
2019-02-12T19:51:46.603Z,3.32
2019-02-12T19:54:15.230Z,3.32
2019-02-12T19:56:43.837Z,3.32
2019-02-12T19:59:12.458Z,3.19
2019-02-12T20:01:41.338Z,3.11
2019-02-12T20:04:09.963Z,3.18
2019-02-12T20:06:38.558Z,3.21
2019-02-12T20:11:42.196Z,3.32
2019-02-12T20:14:10.814Z,3.09
2019-02-12T20:16:39.447Z,3.14
2019-02-12T20:19:08.063Z,3.03
2019-02-12T20:21:36.677Z,3.07
2019-02-12T20:24:05.313Z,2.94
2019-02-12T20:26:34.209Z,2.91
2019-02-12T20:29:02.836Z,2.81
2019-02-12T20:31:32.013Z,2.76
2019-02-12T20:34:00.372Z,2.72
2019-02-12T20:36:28.969Z,2.75
2019-02-12T20:38:57.654Z,2.77
2019-02-12T20:41:26.275Z,2.73
2019-02-12T20:43:55.215Z,2.82
2019-02-12T20:46:24.090Z,2.91
2019-02-12T20:48:52.729Z,2.80
2019-02-12T20:51:21.662Z,2.83
2019-02-12T20:53:50.563Z,2.86
2019-02-12T20:56:19.170Z,2.78
2019-02-12T20:58:47.794Z,2.73
2019-02-12T21:01:16.414Z,2.87
2019-02-12T21:03:45.084Z,2.93
2019-02-12T21:06:13.689Z,2.81
2019-02-12T21:08:42.310Z,2.71
2019-02-12T21:11:10.913Z,2.69
2019-02-12T21:13:39.537Z,2.76
2019-02-12T21:16:08.149Z,2.73
2019-02-12T21:18:36.776Z,2.69
2019-02-12T21:21:05.398Z,2.80
2019-02-12T21:23:34.025Z,2.71
2019-02-12T21:26:02.647Z,2.71
2019-02-12T21:28:31.261Z,2.71
2019-02-12T21:30:59.876Z,2.79
2019-02-12T21:33:28.509Z,2.72
2019-02-12T21:35:57.098Z,2.81
2019-02-12T21:38:26.678Z,2.87
2019-02-12T21:40:54.653Z,2.91
2019-02-12T21:43:23.278Z,2.89
2019-02-12T21:45:51.903Z,2.96
2019-02-12T21:48:20.546Z,2.94
2019-02-12T21:50:49.168Z,3.04
2019-02-12T21:53:17.780Z,2.95
2019-02-12T21:55:46.413Z,2.95
2019-02-12T21:58:15.014Z,2.95
2019-02-12T22:00:44.062Z,2.95
2019-02-12T22:03:12.618Z,2.89
2019-02-12T22:05:41.253Z,2.87
2019-02-12T22:08:09.873Z,2.91
2019-02-12T22:10:46.236Z,2.78
2019-02-12T22:13:07.468Z,2.76
2019-02-12T22:15:36.100Z,2.74
2019-02-12T22:18:04.719Z,2.68
2019-02-12T22:20:33.350Z,2.68
2019-02-12T22:23:02.258Z,2.76
2019-02-12T22:25:31.243Z,2.78
2019-02-12T22:27:59.868Z,2.82
2019-02-12T22:30:28.494Z,2.72
2019-02-12T22:32:57.121Z,2.61
2019-02-12T22:35:25.760Z,2.72
2019-02-12T22:37:54.362Z,2.72
2019-02-12T22:40:22.974Z,2.82
2019-02-12T22:42:51.587Z,2.73
2019-02-12T22:45:20.216Z,2.77
2019-02-12T22:47:48.827Z,2.75
2019-02-12T22:50:17.455Z,2.70
2019-02-12T22:52:46.358Z,2.64
2019-02-12T22:55:15.367Z,2.65
2019-02-12T22:57:49.247Z,2.66
2019-02-12T23:00:27.974Z,2.59
2019-02-12T23:02:56.877Z,2.48
2019-02-12T23:05:25.856Z,2.40
2019-02-12T23:07:54.475Z,2.30
2019-02-12T23:10:23.120Z,2.27
2019-02-12T23:12:51.724Z,2.27
2019-02-12T23:15:20.706Z,2.27
2019-02-12T23:17:49.369Z,2.16
2019-02-12T23:20:18.011Z,2.10
2019-02-12T23:22:46.620Z,2.06
2019-02-12T23:25:15.239Z,1.95
2019-02-12T23:27:44.224Z,1.90
2019-02-12T23:30:13.218Z,1.81
2019-02-12T23:32:41.845Z,1.86
2019-02-12T23:35:10.476Z,1.89
2019-02-12T23:37:39.111Z,1.89
2019-02-12T23:40:07.750Z,1.95
2019-02-12T23:42:36.366Z,1.95
2019-02-12T23:45:04.995Z,2.02
2019-02-12T23:47:33.899Z,1.92
2019-02-12T23:50:02.535Z,1.90
2019-02-12T23:52:31.156Z,1.93
2019-02-12T23:54:59.777Z,1.98
2019-02-12T23:57:28.642Z,2.01
2019-02-12T23:59:57.627Z,1.98
